Mandaguacu, Brazil
Current Conditions -  °F | °C
As of 12:00 PM on Friday 24 Oct 2014 (Local Time) from SBMG Reporting Station
Few Clouds Few Clouds  
Wind Chill: 84°   Ceiling: Unl
Heat Index: 86°   Visibility: 6mi
Dew Point: 64°   Wind: 17mph
Humidity: 51%   Direction: 340°NNW
Pressure: 30"   Gusts: NA
Location:  23.35°S, 52.1°W
Report Text: SBMG 241400Z 34015KT 9999 FEW040 29/18 Q1016
Loading
Personal Weather Stations






























Interactive Weather Map
Tropical Storm Tracking
New forecast layout! Learn more

10-Day Weather Forecast

Advertisements
Track Severe Weather on mobile